createdAt,value
2024-05-09T00:00:49.978Z,1.8
2024-05-09T00:05:54.545Z,1.8
2024-05-09T00:10:59.107Z,1.7
2024-05-09T00:16:03.547Z,1.7
2024-05-09T00:21:07.215Z,1.6
2024-05-09T00:26:11.688Z,1.7
2024-05-09T00:31:16.176Z,1.8
2024-05-09T00:36:19.731Z,1.7
2024-05-09T00:41:30.782Z,1.7
2024-05-09T00:46:28.905Z,1.7
2024-05-09T00:51:32.348Z,1.7
2024-05-09T00:56:37.004Z,1.6
2024-05-09T01:01:41.560Z,1.6
2024-05-09T01:06:44.981Z,1.7
2024-05-09T01:11:49.651Z,1.6
2024-05-09T01:16:54.096Z,1.4
2024-05-09T01:21:58.635Z,1.4
2024-05-09T01:27:02.173Z,1.5
2024-05-09T01:32:06.811Z,1.4
2024-05-09T01:47:19.495Z,1.4
2024-05-09T01:52:23.838Z,1.4
2024-05-09T01:57:27.407Z,1.5
2024-05-09T02:02:31.988Z,1.6
2024-05-09T02:07:36.475Z,1.7
2024-05-09T02:12:40.008Z,1.7
2024-05-09T02:17:44.853Z,1.6
2024-05-09T02:22:49.112Z,1.6
2024-05-09T02:27:53.632Z,1.5
2024-05-09T02:32:57.283Z,1.5
2024-05-09T02:38:01.826Z,1.6
2024-05-09T02:43:06.554Z,1.7
2024-05-09T02:48:09.968Z,1.8
2024-05-09T02:53:14.720Z,1.8
2024-05-09T02:58:18.878Z,1.8
2024-05-09T03:03:22.716Z,1.8
2024-05-09T03:08:27.011Z,1.9
2024-05-09T03:13:31.475Z,2
2024-05-09T03:18:35.065Z,1.9
2024-05-09T03:23:39.730Z,2.1
2024-05-09T03:28:44.088Z,2.3
2024-05-09T03:33:48.837Z,2.2
2024-05-09T03:38:52.155Z,2.3
2024-05-09T03:43:55.785Z,2.3
2024-05-09T03:49:00.324Z,1.9
2024-05-09T03:54:04.797Z,2
2024-05-09T03:59:08.456Z,1.8
2024-05-09T04:04:12.913Z,1.8
2024-05-09T04:09:17.406Z,1.9
2024-05-09T04:14:21.960Z,1.9
2024-05-09T04:19:25.640Z,2
2024-05-09T04:24:30.379Z,2.1
2024-05-09T04:29:34.640Z,1.9
2024-05-09T04:34:38.157Z,1.9
2024-05-09T04:39:42.656Z,1.8
2024-05-09T04:44:47.163Z,1.7
2024-05-09T04:49:50.789Z,1.9
2024-05-09T04:54:56.907Z,2
2024-05-09T04:59:59.814Z,1.9
2024-05-09T05:05:03.525Z,1.9
2024-05-09T05:10:11.845Z,1.9
2024-05-09T05:15:12.762Z,2.1
2024-05-09T05:20:24.503Z,1.9
2024-05-09T05:25:20.477Z,1.9
2024-05-09T05:30:29.179Z,1.9
2024-05-09T05:35:29.689Z,1.7
2024-05-09T05:40:36.899Z,1.7
2024-05-09T05:45:37.944Z,1.7
2024-05-09T05:50:42.308Z,1.6
2024-05-09T05:55:45.798Z,1.6
2024-05-09T06:00:50.319Z,1.3
2024-05-09T06:05:54.868Z,1.4
2024-05-09T06:10:58.463Z,1.3
2024-05-09T06:16:02.891Z,1.6
2024-05-09T06:21:07.507Z,1.6
2024-05-09T06:26:12.002Z,1.6
2024-05-09T06:31:15.521Z,1.7
2024-05-09T06:36:20.087Z,1.9
2024-05-09T06:41:24.631Z,1.9
2024-05-09T06:46:28.231Z,2.2
2024-05-09T06:51:32.723Z,2
2024-05-09T06:56:37.349Z,2.1
2024-05-09T07:01:40.868Z,2.1
2024-05-09T07:06:45.276Z,2.1
2024-05-09T07:11:49.989Z,2
2024-05-09T07:16:53.538Z,1.6
2024-05-09T07:21:57.909Z,2
2024-05-09T07:27:02.422Z,2.2
2024-05-09T07:32:12.525Z,2.1
2024-05-09T07:38:40.771Z,2.3
2024-05-09T07:50:34.411Z,2.3
2024-05-09T07:53:44.344Z,2.3
2024-05-09T07:58:42.828Z,2.2
2024-05-09T08:03:47.616Z,2.7
2024-05-09T08:08:51.916Z,2.7
2024-05-09T08:13:55.458Z,3
2024-05-09T08:19:00.202Z,3.1
2024-05-09T08:24:04.646Z,3.2
2024-05-09T08:29:09.085Z,3.8
2024-05-09T08:34:12.755Z,3.9
2024-05-09T08:39:22.456Z,5
2024-05-09T08:45:37.848Z,5.6
2024-05-09T08:50:41.650Z,4.9
2024-05-09T08:55:45.949Z,4.5
2024-05-09T09:00:50.613Z,4.4
2024-05-09T09:05:54.037Z,5.1
2024-05-09T09:10:58.556Z,5
2024-05-09T09:16:03.335Z,5.1
2024-05-09T09:21:06.611Z,5.9
2024-05-09T09:26:11.185Z,6.5
2024-05-09T09:31:15.685Z,8.9
2024-05-09T09:36:19.246Z,8.7
2024-05-09T09:41:23.775Z,9.8
2024-05-09T09:46:28.293Z,10.2
2024-05-09T09:51:33.208Z,10.6
2024-05-09T09:56:36.379Z,9.2
2024-05-09T10:01:41.116Z,8.6
2024-05-09T10:06:48.713Z,8.9
2024-05-09T10:11:52.096Z,9.5
2024-05-09T10:16:53.532Z,10.2
2024-05-09T10:21:58.137Z,9.9
2024-05-09T10:27:01.654Z,10.1
2024-05-09T10:32:06.162Z,10.6
2024-05-09T10:37:10.746Z,10
2024-05-09T10:42:14.379Z,9.7
2024-05-09T10:47:18.816Z,10.3
2024-05-09T10:52:23.363Z,10.9
2024-05-09T10:57:27.928Z,11.4
2024-05-09T11:02:31.609Z,10.6
2024-05-09T11:07:35.944Z,10.3
2024-05-09T11:12:40.548Z,10.3
2024-05-09T11:17:44.182Z,10.7
2024-05-09T11:22:48.553Z,10.7
2024-05-09T11:27:53.155Z,10.8
2024-05-09T11:32:56.852Z,11.5
2024-05-09T11:38:01.212Z,9.8
2024-05-09T11:43:05.890Z,9.7
2024-05-09T11:48:09.388Z,9.9
2024-05-09T11:53:13.842Z,9.9
2024-05-09T11:58:19.164Z,10
2024-05-09T12:08:26.571Z,10.3
2024-05-09T12:13:30.089Z,10.6
2024-05-09T12:18:34.627Z,10.7
2024-05-09T12:23:39.060Z,11.1
2024-05-09T12:28:42.622Z,11.1
2024-05-09T12:33:47.277Z,11.8
2024-05-09T12:38:51.692Z,12.7
2024-05-09T12:48:59.971Z,12.3
2024-05-09T12:54:04.294Z,12
2024-05-09T12:59:08.838Z,10.4
2024-05-09T13:04:12.553Z,9.6
2024-05-09T13:09:16.954Z,10.5
2024-05-09T13:14:21.555Z,10
2024-05-09T13:19:25.062Z,10.9
2024-05-09T13:24:29.578Z,10.4
2024-05-09T13:29:34.100Z,10.9
2024-05-09T13:34:37.698Z,10.7
2024-05-09T13:39:42.243Z,11.8
2024-05-09T13:44:46.698Z,11
2024-05-09T13:49:59.009Z,10.6
2024-05-09T13:56:10.936Z,10.8
2024-05-09T14:01:15.538Z,10.5
2024-05-09T14:06:20.008Z,10.7
2024-05-09T14:11:23.573Z,11.1
2024-05-09T14:16:28.174Z,11.2
2024-05-09T14:21:32.761Z,11.5
2024-05-09T14:26:36.171Z,11.2
2024-05-09T14:31:40.915Z,11.5
2024-05-09T14:36:45.289Z,11.7
2024-05-09T14:41:48.812Z,11.2
2024-05-09T14:46:53.330Z,11.8
2024-05-09T14:51:57.959Z,11.1
2024-05-09T14:57:01.448Z,11.2
2024-05-09T15:02:06.190Z,11.2
2024-05-09T15:07:11.532Z,11.3
2024-05-09T15:12:15.120Z,11.3
2024-05-09T15:17:18.570Z,11.4
2024-05-09T15:22:23.159Z,11.8
2024-05-09T15:27:27.646Z,11.7
2024-05-09T15:32:31.462Z,11.4
2024-05-09T15:37:35.752Z,12
2024-05-09T15:42:42.747Z,11
2024-05-09T15:47:43.886Z,11.5
2024-05-09T15:52:48.358Z,11
2024-05-09T15:57:52.927Z,10.7
2024-05-09T16:02:56.501Z,10.7
2024-05-09T16:08:01.015Z,9.9
2024-05-09T16:13:05.595Z,9.7
2024-05-09T16:18:10.091Z,9.4
2024-05-09T16:23:13.588Z,9.2
2024-05-09T16:28:17.167Z,9.1
2024-05-09T16:33:21.809Z,9.3
2024-05-09T16:38:26.191Z,8.9
2024-05-09T16:48:34.527Z,8.7
2024-05-09T16:53:38.849Z,8.6
2024-05-09T16:58:43.366Z,8.6
2024-05-09T17:03:47.089Z,8.5
2024-05-09T17:08:51.764Z,8.3
2024-05-09T17:18:59.730Z,8.2
2024-05-09T17:24:04.073Z,8.1
2024-05-09T17:29:10.892Z,8
2024-05-09T17:34:12.276Z,7.9
2024-05-09T17:39:16.725Z,8.1
2024-05-09T17:44:21.235Z,8.2
2024-05-09T17:49:24.971Z,8.1
2024-05-09T17:54:29.300Z,8.1
2024-05-09T17:59:33.902Z,8
2024-05-09T18:04:38.458Z,8
2024-05-09T18:09:41.933Z,7.9
2024-05-09T18:14:46.453Z,7.9
2024-05-09T18:19:51.078Z,8.1
2024-05-09T18:24:54.606Z,8.1
2024-05-09T18:29:59.094Z,7.9
2024-05-09T18:35:03.689Z,7.6
2024-05-09T18:40:11.751Z,7.5
2024-05-09T18:45:11.704Z,7.4
2024-05-09T18:50:24.620Z,7.3
2024-05-09T18:55:19.774Z,7.2
2024-05-09T19:00:37.446Z,7
2024-05-09T19:05:29.033Z,7.1
2024-05-09T19:10:35.118Z,6.8
2024-05-09T19:15:37.056Z,6.8
2024-05-09T19:20:41.649Z,6.8
2024-05-09T19:25:46.002Z,6.7
2024-05-09T19:30:49.940Z,6.5
2024-05-09T19:35:54.069Z,6.5
2024-05-09T19:40:58.658Z,6.5
2024-05-09T19:46:13.511Z,6.5
2024-05-09T19:51:06.721Z,6.3
2024-05-09T19:56:11.279Z,6.1
2024-05-09T20:01:14.918Z,6.1
2024-05-09T20:06:19.301Z,6
2024-05-09T20:11:23.906Z,6
2024-05-09T20:16:28.417Z,6
2024-05-09T20:21:31.981Z,5.8
2024-05-09T20:26:36.476Z,5.8
2024-05-09T20:31:40.971Z,5.8
2024-05-09T20:36:44.542Z,5.9
2024-05-09T20:41:48.127Z,5.7
2024-05-09T20:46:52.627Z,5.9
2024-05-09T20:51:57.227Z,5.8
2024-05-09T20:57:01.718Z,5.7
2024-05-09T21:02:05.351Z,5.9
2024-05-09T21:07:09.812Z,6.1
2024-05-09T21:12:14.295Z,6
2024-05-09T21:17:17.897Z,5.7
2024-05-09T21:22:22.493Z,5.8
2024-05-09T21:27:26.928Z,5.7
2024-05-09T21:32:30.652Z,5.8
2024-05-09T21:37:35.034Z,6
2024-05-09T21:42:39.589Z,6
2024-05-09T21:47:43.148Z,6.2
2024-05-09T21:52:47.616Z,6
2024-05-09T21:57:52.232Z,5.7
2024-05-09T22:02:56.699Z,5.7
2024-05-09T22:08:00.251Z,5.6
2024-05-09T22:13:05.909Z,5.5
2024-05-09T22:18:10.341Z,5.5
2024-05-09T22:23:12.874Z,5.4
2024-05-09T22:28:17.472Z,5.4
2024-05-09T22:33:22.080Z,5.2
2024-05-09T22:38:25.564Z,5.4
2024-05-09T22:43:30.150Z,5.4
2024-05-09T22:48:34.962Z,5.6
2024-05-09T22:53:38.129Z,5.6
2024-05-09T22:58:42.663Z,5.7
2024-05-09T23:03:47.321Z,5.5
2024-05-09T23:08:51.702Z,4.9
2024-05-09T23:13:55.271Z,4.8
2024-05-09T23:18:59.995Z,4.9
2024-05-09T23:24:04.337Z,4.5
2024-05-09T23:29:07.912Z,4.3
2024-05-09T23:34:12.532Z,4.2
2024-05-09T23:39:16.959Z,4.1
2024-05-09T23:44:20.525Z,4.2
2024-05-09T23:49:25.068Z,4.4
2024-05-09T23:54:29.589Z,4.7
2024-05-09T23:59:33.156Z,4.9
